sensor_id;sensor_type;location;lat;lon;timestamp;P1;P2;P0
72509;PMS5003;60532;56.114;40.350;2024-01-27T00:01:20;22.25;18.25;9.00
72509;PMS5003;60532;56.114;40.350;2024-01-27T00:03:20;29.00;24.75;12.00
72509;PMS5003;60532;56.114;40.350;2024-01-27T00:05:21;34.50;26.00;10.50
72509;PMS5003;60532;56.114;40.350;2024-01-27T00:07:22;32.00;20.50;9.75
72509;PMS5003;60532;56.114;40.350;2024-01-27T00:09:22;26.00;19.50;9.00
72509;PMS5003;60532;56.114;40.350;2024-01-27T00:11:23;35.25;27.00;13.00
72509;PMS5003;60532;56.114;40.350;2024-01-27T00:13:24;20.60;16.40;10.00
72509;PMS5003;60532;56.114;40.350;2024-01-27T00:15:25;28.25;19.00;11.00
72509;PMS5003;60532;56.114;40.350;2024-01-27T00:17:26;30.00;21.50;10.50
72509;PMS5003;60532;56.114;40.350;2024-01-27T00:19:28;24.20;17.20;12.00
72509;PMS5003;60532;56.114;40.350;2024-01-27T00:21:28;29.00;20.00;12.75
72509;PMS5003;60532;56.114;40.350;2024-01-27T00:23:29;24.50;20.50;12.00
72509;PMS5003;60532;56.114;40.350;2024-01-27T00:25:30;23.00;17.00;5.75
72509;PMS5003;60532;56.114;40.350;2024-01-27T00:27:30;19.50;16.00;7.00
72509;PMS5003;60532;56.114;40.350;2024-01-27T00:29:31;22.50;14.00;11.00
72509;PMS5003;60532;56.114;40.350;2024-01-27T00:31:31;23.00;18.00;9.00
72509;PMS5003;60532;56.114;40.350;2024-01-27T00:33:32;26.00;18.25;11.50
72509;PMS5003;60532;56.114;40.350;2024-01-27T00:35:33;28.00;23.50;13.00
72509;PMS5003;60532;56.114;40.350;2024-01-27T00:37:33;24.50;20.75;9.25
72509;PMS5003;60532;56.114;40.350;2024-01-27T00:39:34;22.00;16.00;7.00
72509;PMS5003;60532;56.114;40.350;2024-01-27T00:41:34;30.00;21.50;10.00
72509;PMS5003;60532;56.114;40.350;2024-01-27T00:43:35;20.00;18.75;10.00
72509;PMS5003;60532;56.114;40.350;2024-01-27T00:45:35;31.00;23.50;12.00
72509;PMS5003;60532;56.114;40.350;2024-01-27T00:47:36;29.00;21.25;11.50
72509;PMS5003;60532;56.114;40.350;2024-01-27T00:49:37;24.50;20.50;8.00
72509;PMS5003;60532;56.114;40.350;2024-01-27T00:51:37;25.50;19.50;9.50
72509;PMS5003;60532;56.114;40.350;2024-01-27T00:53:38;31.00;24.75;11.00
72509;PMS5003;60532;56.114;40.350;2024-01-27T00:55:39;29.20;16.00;9.00
72509;PMS5003;60532;56.114;40.350;2024-01-27T00:57:39;25.00;22.00;13.00
72509;PMS5003;60532;56.114;40.350;2024-01-27T00:59:40;32.50;24.50;11.50
72509;PMS5003;60532;56.114;40.350;2024-01-27T01:01:41;34.25;26.25;13.00
72509;PMS5003;60532;56.114;40.350;2024-01-27T01:03:41;19.00;15.75;6.00
72509;PMS5003;60532;56.114;40.350;2024-01-27T01:05:42;30.50;23.50;10.00
72509;PMS5003;60532;56.114;40.350;2024-01-27T01:07:43;24.75;21.25;13.00
72509;PMS5003;60532;56.114;40.350;2024-01-27T01:09:43;31.75;18.75;11.00
72509;PMS5003;60532;56.114;40.350;2024-01-27T01:11:44;31.25;22.00;9.00
72509;PMS5003;60532;56.114;40.350;2024-01-27T01:13:45;27.50;21.50;12.50
72509;PMS5003;60532;56.114;40.350;2024-01-27T01:15:45;32.50;22.00;12.00
72509;PMS5003;60532;56.114;40.350;2024-01-27T01:17:46;28.75;24.50;12.50
72509;PMS5003;60532;56.114;40.350;2024-01-27T01:19:46;35.75;24.25;13.00
72509;PMS5003;60532;56.114;40.350;2024-01-27T01:21:47;22.25;16.50;10.00
72509;PMS5003;60532;56.114;40.350;2024-01-27T01:23:48;32.50;21.50;12.75
72509;PMS5003;60532;56.114;40.350;2024-01-27T01:25:48;30.75;22.75;11.00
72509;PMS5003;60532;56.114;40.350;2024-01-27T01:27:49;27.25;25.25;12.00
72509;PMS5003;60532;56.114;40.350;2024-01-27T01:29:50;26.00;22.40;12.20
72509;PMS5003;60532;56.114;40.350;2024-01-27T01:31:51;25.50;22.50;12.50
72509;PMS5003;60532;56.114;40.350;2024-01-27T01:33:51;32.50;26.00;12.00
72509;PMS5003;60532;56.114;40.350;2024-01-27T01:35:52;33.50;23.25;10.50
72509;PMS5003;60532;56.114;40.350;2024-01-27T01:37:53;24.00;18.60;11.60
72509;PMS5003;60532;56.114;40.350;2024-01-27T01:39:54;32.25;19.50;9.00
72509;PMS5003;60532;56.114;40.350;2024-01-27T01:41:54;26.25;19.25;11.50
72509;PMS5003;60532;56.114;40.350;2024-01-27T01:43:55;24.50;18.25;7.00
72509;PMS5003;60532;56.114;40.350;2024-01-27T01:45:55;22.75;19.25;10.00
72509;PMS5003;60532;56.114;40.350;2024-01-27T01:47:56;26.25;18.25;10.00
72509;PMS5003;60532;56.114;40.350;2024-01-27T01:49:57;24.75;22.25;11.00
72509;PMS5003;60532;56.114;40.350;2024-01-27T01:51:58;26.00;23.20;12.80
72509;PMS5003;60532;56.114;40.350;2024-01-27T01:53:59;21.75;14.50;4.00
72509;PMS5003;60532;56.114;40.350;2024-01-27T01:56:00;30.80;23.00;12.80
72509;PMS5003;60532;56.114;40.350;2024-01-27T01:58:01;21.50;13.00;7.00
72509;PMS5003;60532;56.114;40.350;2024-01-27T02:00:02;33.00;25.75;12.25
72509;PMS5003;60532;56.114;40.350;2024-01-27T02:02:04;17.60;10.00;0.00
72509;PMS5003;60532;56.114;40.350;2024-01-27T02:04:04;35.75;25.25;13.50
72509;PMS5003;60532;56.114;40.350;2024-01-27T02:06:05;22.50;18.75;12.00
72509;PMS5003;60532;56.114;40.350;2024-01-27T02:08:06;22.00;18.75;9.75
72509;PMS5003;60532;56.114;40.350;2024-01-27T02:10:11;32.00;18.25;10.00
72509;PMS5003;60532;56.114;40.350;2024-01-27T02:12:12;12.20;12.00;8.20
72509;PMS5003;60532;56.114;40.350;2024-01-27T02:14:13;30.00;21.50;10.00
72509;PMS5003;60532;56.114;40.350;2024-01-27T02:16:14;27.25;18.00;7.00
72509;PMS5003;60532;56.114;40.350;2024-01-27T02:18:15;31.50;22.00;10.00
72509;PMS5003;60532;56.114;40.350;2024-01-27T02:20:15;25.40;19.40;10.40
72509;PMS5003;60532;56.114;40.350;2024-01-27T02:22:16;25.75;18.25;10.00
72509;PMS5003;60532;56.114;40.350;2024-01-27T02:24:17;32.50;21.50;9.50
72509;PMS5003;60532;56.114;40.350;2024-01-27T02:26:17;27.25;19.00;10.00
72509;PMS5003;60532;56.114;40.350;2024-01-27T02:28:18;29.50;18.25;9.25
72509;PMS5003;60532;56.114;40.350;2024-01-27T02:30:18;21.00;16.50;9.00
72509;PMS5003;60532;56.114;40.350;2024-01-27T02:32:19;25.25;19.25;9.50
72509;PMS5003;60532;56.114;40.350;2024-01-27T02:34:20;24.25;15.50;5.50
72509;PMS5003;60532;56.114;40.350;2024-01-27T02:36:20;25.25;19.75;10.25
72509;PMS5003;60532;56.114;40.350;2024-01-27T02:38:21;30.75;22.50;12.00
72509;PMS5003;60532;56.114;40.350;2024-01-27T02:40:21;25.75;17.75;8.00
72509;PMS5003;60532;56.114;40.350;2024-01-27T02:42:22;24.00;20.00;10.00
72509;PMS5003;60532;56.114;40.350;2024-01-27T02:44:23;26.20;16.00;8.60
72509;PMS5003;60532;56.114;40.350;2024-01-27T02:46:24;29.25;26.25;12.75
72509;PMS5003;60532;56.114;40.350;2024-01-27T02:48:25;19.25;17.50;9.50
72509;PMS5003;60532;56.114;40.350;2024-01-27T02:50:25;31.50;24.00;11.50
72509;PMS5003;60532;56.114;40.350;2024-01-27T02:52:26;34.50;23.00;12.50
72509;PMS5003;60532;56.114;40.350;2024-01-27T02:54:27;26.00;20.40;10.00
72509;PMS5003;60532;56.114;40.350;2024-01-27T02:56:28;27.25;20.00;9.00
72509;PMS5003;60532;56.114;40.350;2024-01-27T02:58:28;25.50;22.25;12.00
72509;PMS5003;60532;56.114;40.350;2024-01-27T03:00:29;28.75;23.00;12.00
72509;PMS5003;60532;56.114;40.350;2024-01-27T03:02:30;24.50;20.00;9.00
72509;PMS5003;60532;56.114;40.350;2024-01-27T03:04:31;21.00;15.50;6.50
72509;PMS5003;60532;56.114;40.350;2024-01-27T03:06:31;26.00;17.00;9.50
72509;PMS5003;60532;56.114;40.350;2024-01-27T03:08:32;21.00;18.75;12.25
72509;PMS5003;60532;56.114;40.350;2024-01-27T03:10:33;27.50;22.50;12.50
72509;PMS5003;60532;56.114;40.350;2024-01-27T03:12:33;29.50;23.00;11.50
72509;PMS5003;60532;56.114;40.350;2024-01-27T03:14:34;21.25;18.00;11.00
72509;PMS5003;60532;56.114;40.350;2024-01-27T03:16:35;33.25;21.00;11.50
72509;PMS5003;60532;56.114;40.350;2024-01-27T03:18:36;33.40;26.00;10.80
72509;PMS5003;60532;56.114;40.350;2024-01-27T03:20:37;34.20;26.40;12.80
72509;PMS5003;60532;56.114;40.350;2024-01-27T03:22:38;26.50;24.75;12.75
72509;PMS5003;60532;56.114;40.350;2024-01-27T03:24:40;24.60;20.60;9.00
72509;PMS5003;60532;56.114;40.350;2024-01-27T03:26:41;21.00;17.00;3.80
72509;PMS5003;60532;56.114;40.350;2024-01-27T03:28:42;21.50;21.50;10.00
72509;PMS5003;60532;56.114;40.350;2024-01-27T03:30:43;32.50;25.00;12.00
72509;PMS5003;60532;56.114;40.350;2024-01-27T03:32:43;30.50;22.75;10.50
72509;PMS5003;60532;56.114;40.350;2024-01-27T03:34:44;27.50;23.75;10.00
72509;PMS5003;60532;56.114;40.350;2024-01-27T03:36:48;27.80;24.20;7.40
72509;PMS5003;60532;56.114;40.350;2024-01-27T03:38:48;23.75;20.00;12.00
72509;PMS5003;60532;56.114;40.350;2024-01-27T03:40:49;28.00;23.00;11.50
72509;PMS5003;60532;56.114;40.350;2024-01-27T03:42:50;24.50;18.75;10.00
72509;PMS5003;60532;56.114;40.350;2024-01-27T03:44:50;36.00;21.50;9.00
72509;PMS5003;60532;56.114;40.350;2024-01-27T03:46:51;27.50;21.25;9.75
72509;PMS5003;60532;56.114;40.350;2024-01-27T03:48:52;36.25;22.00;13.00
72509;PMS5003;60532;56.114;40.350;2024-01-27T03:50:52;28.50;24.75;10.50
72509;PMS5003;60532;56.114;40.350;2024-01-27T03:52:53;41.00;25.75;11.00
72509;PMS5003;60532;56.114;40.350;2024-01-27T03:54:53;39.00;24.00;10.00
72509;PMS5003;60532;56.114;40.350;2024-01-27T03:56:54;28.25;22.00;11.50
72509;PMS5003;60532;56.114;40.350;2024-01-27T03:58:55;28.50;18.75;7.50
72509;PMS5003;60532;56.114;40.350;2024-01-27T04:00:58;21.50;20.00;11.00
72509;PMS5003;60532;56.114;40.350;2024-01-27T04:02:59;26.00;22.20;11.20
72509;PMS5003;60532;56.114;40.350;2024-01-27T04:05:00;34.40;25.00;12.00
72509;PMS5003;60532;56.114;40.350;2024-01-27T04:07:00;29.50;24.50;9.00
72509;PMS5003;60532;56.114;40.350;2024-01-27T04:09:02;27.00;21.00;9.40
72509;PMS5003;60532;56.114;40.350;2024-01-27T04:11:03;28.40;21.00;8.60
72509;PMS5003;60532;56.114;40.350;2024-01-27T04:13:04;33.25;27.50;11.00
72509;PMS5003;60532;56.114;40.350;2024-01-27T04:15:04;23.50;18.25;12.00
72509;PMS5003;60532;56.114;40.350;2024-01-27T04:17:05;39.25;24.25;7.00
72509;PMS5003;60532;56.114;40.350;2024-01-27T04:19:06;25.50;19.00;9.75
72509;PMS5003;60532;56.114;40.350;2024-01-27T04:21:06;29.75;16.75;8.50
72509;PMS5003;60532;56.114;40.350;2024-01-27T04:23:07;24.75;22.00;12.50
72509;PMS5003;60532;56.114;40.350;2024-01-27T04:25:08;20.80;12.20;1.00
72509;PMS5003;60532;56.114;40.350;2024-01-27T04:27:09;29.50;21.00;10.00
72509;PMS5003;60532;56.114;40.350;2024-01-27T04:29:09;36.50;26.50;12.75
72509;PMS5003;60532;56.114;40.350;2024-01-27T04:31:15;22.40;18.80;13.00
72509;PMS5003;60532;56.114;40.350;2024-01-27T04:33:15;42.00;25.25;13.00
72509;PMS5003;60532;56.114;40.350;2024-01-27T04:35:16;30.50;21.75;12.25
72509;PMS5003;60532;56.114;40.350;2024-01-27T04:37:16;33.25;25.25;12.50
72509;PMS5003;60532;56.114;40.350;2024-01-27T04:39:17;23.75;18.00;9.75
72509;PMS5003;60532;56.114;40.350;2024-01-27T04:41:18;15.25;15.00;11.00
72509;PMS5003;60532;56.114;40.350;2024-01-27T04:43:18;29.25;23.00;11.50
72509;PMS5003;60532;56.114;40.350;2024-01-27T04:45:20;33.80;23.60;12.00
72509;PMS5003;60532;56.114;40.350;2024-01-27T04:47:21;38.00;28.00;13.00
72509;PMS5003;60532;56.114;40.350;2024-01-27T04:49:21;34.50;25.50;12.00
72509;PMS5003;60532;56.114;40.350;2024-01-27T04:51:22;36.75;29.75;13.00
72509;PMS5003;60532;56.114;40.350;2024-01-27T04:53:22;39.50;26.50;13.00
72509;PMS5003;60532;56.114;40.350;2024-01-27T04:55:23;31.00;26.50;12.25
72509;PMS5003;60532;56.114;40.350;2024-01-27T04:57:24;33.75;28.00;13.00
72509;PMS5003;60532;56.114;40.350;2024-01-27T04:59:24;32.00;27.00;12.00
72509;PMS5003;60532;56.114;40.350;2024-01-27T05:01:25;33.75;23.75;11.00
72509;PMS5003;60532;56.114;40.350;2024-01-27T05:03:25;36.00;15.75;10.00
72509;PMS5003;60532;56.114;40.350;2024-01-27T05:05:26;38.75;29.50;12.50
72509;PMS5003;60532;56.114;40.350;2024-01-27T05:07:27;37.50;25.00;9.25
72509;PMS5003;60532;56.114;40.350;2024-01-27T05:09:27;35.50;27.00;9.00
72509;PMS5003;60532;56.114;40.350;2024-01-27T05:11:29;23.00;19.00;11.50
72509;PMS5003;60532;56.114;40.350;2024-01-27T05:13:30;34.20;27.80;13.80
72509;PMS5003;60532;56.114;40.350;2024-01-27T05:15:30;36.50;28.25;12.00
72509;PMS5003;60532;56.114;40.350;2024-01-27T05:17:31;28.50;20.00;8.50
72509;PMS5003;60532;56.114;40.350;2024-01-27T05:19:31;38.00;30.25;12.50
72509;PMS5003;60532;56.114;40.350;2024-01-27T05:21:32;42.00;31.00;13.50
72509;PMS5003;60532;56.114;40.350;2024-01-27T05:23:33;32.00;22.25;13.00
72509;PMS5003;60532;56.114;40.350;2024-01-27T05:25:33;29.50;25.00;12.25
72509;PMS5003;60532;56.114;40.350;2024-01-27T05:27:34;32.25;26.00;13.25
72509;PMS5003;60532;56.114;40.350;2024-01-27T05:29:36;38.00;28.25;12.50
72509;PMS5003;60532;56.114;40.350;2024-01-27T05:31:37;37.20;32.80;15.00
72509;PMS5003;60532;56.114;40.350;2024-01-27T05:33:38;29.00;18.50;1.00
72509;PMS5003;60532;56.114;40.350;2024-01-27T05:35:41;31.80;21.00;7.00
72509;PMS5003;60532;56.114;40.350;2024-01-27T05:37:42;34.00;27.50;13.00
72509;PMS5003;60532;56.114;40.350;2024-01-27T05:39:43;37.25;26.00;13.00
72509;PMS5003;60532;56.114;40.350;2024-01-27T05:41:44;47.50;24.75;12.00
72509;PMS5003;60532;56.114;40.350;2024-01-27T05:43:44;36.50;24.50;11.50
72509;PMS5003;60532;56.114;40.350;2024-01-27T05:45:45;37.25;27.25;15.00
72509;PMS5003;60532;56.114;40.350;2024-01-27T05:47:46;32.40;20.80;13.40
72509;PMS5003;60532;56.114;40.350;2024-01-27T05:49:47;41.25;27.75;15.00
72509;PMS5003;60532;56.114;40.350;2024-01-27T05:51:47;29.00;28.25;14.50
72509;PMS5003;60532;56.114;40.350;2024-01-27T05:53:50;44.00;33.00;15.60
72509;PMS5003;60532;56.114;40.350;2024-01-27T05:55:51;34.50;29.75;13.00
72509;PMS5003;60532;56.114;40.350;2024-01-27T05:57:52;30.80;27.40;13.80
72509;PMS5003;60532;56.114;40.350;2024-01-27T05:59:53;31.00;22.50;11.50
72509;PMS5003;60532;56.114;40.350;2024-01-27T06:01:54;38.80;29.60;13.00
72509;PMS5003;60532;56.114;40.350;2024-01-27T06:03:55;30.25;24.50;12.25
72509;PMS5003;60532;56.114;40.350;2024-01-27T06:05:55;39.50;31.25;12.75
72509;PMS5003;60532;56.114;40.350;2024-01-27T06:07:56;41.00;31.00;13.50
72509;PMS5003;60532;56.114;40.350;2024-01-27T06:09:56;32.00;26.50;14.50
72509;PMS5003;60532;56.114;40.350;2024-01-27T06:12:00;39.50;32.00;16.50
72509;PMS5003;60532;56.114;40.350;2024-01-27T06:14:03;39.00;33.00;15.60
72509;PMS5003;60532;56.114;40.350;2024-01-27T06:16:07;49.25;33.50;15.25
72509;PMS5003;60532;56.114;40.350;2024-01-27T06:18:09;41.00;28.60;14.80
72509;PMS5003;60532;56.114;40.350;2024-01-27T06:20:09;53.75;30.75;12.50
72509;PMS5003;60532;56.114;40.350;2024-01-27T06:22:10;36.25;30.00;15.00
72509;PMS5003;60532;56.114;40.350;2024-01-27T06:24:13;36.00;30.20;13.00
72509;PMS5003;60532;56.114;40.350;2024-01-27T06:26:13;39.75;28.50;13.50
72509;PMS5003;60532;56.114;40.350;2024-01-27T06:28:14;46.75;28.75;14.00
72509;PMS5003;60532;56.114;40.350;2024-01-27T06:30:15;31.25;27.25;15.25
72509;PMS5003;60532;56.114;40.350;2024-01-27T06:32:16;41.40;31.80;15.00
72509;PMS5003;60532;56.114;40.350;2024-01-27T06:34:16;43.50;35.00;14.50
72509;PMS5003;60532;56.114;40.350;2024-01-27T06:36:17;33.75;29.00;15.00
72509;PMS5003;60532;56.114;40.350;2024-01-27T06:38:18;36.50;29.50;16.00
72509;PMS5003;60532;56.114;40.350;2024-01-27T06:40:18;42.50;29.50;15.00
72509;PMS5003;60532;56.114;40.350;2024-01-27T06:42:19;32.75;27.00;15.00
72509;PMS5003;60532;56.114;40.350;2024-01-27T06:44:20;43.00;38.75;16.50
72509;PMS5003;60532;56.114;40.350;2024-01-27T06:46:20;46.75;35.25;15.00
72509;PMS5003;60532;56.114;40.350;2024-01-27T06:48:21;37.75;28.75;16.00
72509;PMS5003;60532;56.114;40.350;2024-01-27T06:50:22;41.00;31.25;15.75
72509;PMS5003;60532;56.114;40.350;2024-01-27T06:52:23;43.20;37.80;15.00
72509;PMS5003;60532;56.114;40.350;2024-01-27T06:54:24;46.25;31.00;14.00
72509;PMS5003;60532;56.114;40.350;2024-01-27T06:56:24;42.25;30.50;16.00
72509;PMS5003;60532;56.114;40.350;2024-01-27T06:58:25;40.00;28.00;12.75
72509;PMS5003;60532;56.114;40.350;2024-01-27T07:00:26;54.50;38.50;18.25
72509;PMS5003;60532;56.114;40.350;2024-01-27T07:02:27;40.80;25.80;16.00
72509;PMS5003;60532;56.114;40.350;2024-01-27T07:04:29;47.60;35.60;18.60
72509;PMS5003;60532;56.114;40.350;2024-01-27T07:06:29;49.50;32.00;18.00
72509;PMS5003;60532;56.114;40.350;2024-01-27T07:08:30;48.00;36.25;15.75
72509;PMS5003;60532;56.114;40.350;2024-01-27T07:10:33;39.60;27.20;11.00
72509;PMS5003;60532;56.114;40.350;2024-01-27T07:12:34;44.00;31.20;15.60
72509;PMS5003;60532;56.114;40.350;2024-01-27T07:14:34;51.00;38.25;15.25
72509;PMS5003;60532;56.114;40.350;2024-01-27T07:16:36;42.00;33.00;15.00
72509;PMS5003;60532;56.114;40.350;2024-01-27T07:18:36;39.75;33.00;16.00
72509;PMS5003;60532;56.114;40.350;2024-01-27T07:20:37;39.00;29.00;12.60
72509;PMS5003;60532;56.114;40.350;2024-01-27T07:22:38;45.75;34.00;18.25
72509;PMS5003;60532;56.114;40.350;2024-01-27T07:24:39;61.50;38.75;20.50
72509;PMS5003;60532;56.114;40.350;2024-01-27T07:26:39;49.75;34.50;16.50
72509;PMS5003;60532;56.114;40.350;2024-01-27T07:28:40;54.00;36.75;15.00
72509;PMS5003;60532;56.114;40.350;2024-01-27T07:30:41;52.25;43.25;20.75
72509;PMS5003;60532;56.114;40.350;2024-01-27T07:32:42;51.25;36.75;14.50
72509;PMS5003;60532;56.114;40.350;2024-01-27T07:34:44;56.20;37.60;16.80
72509;PMS5003;60532;56.114;40.350;2024-01-27T07:36:45;45.75;38.00;19.75
72509;PMS5003;60532;56.114;40.350;2024-01-27T07:38:45;54.25;36.25;21.25
72509;PMS5003;60532;56.114;40.350;2024-01-27T07:40:46;45.00;39.00;18.00
72509;PMS5003;60532;56.114;40.350;2024-01-27T07:42:47;46.75;33.50;19.00
72509;PMS5003;60532;56.114;40.350;2024-01-27T07:44:47;42.75;25.50;12.00
72509;PMS5003;60532;56.114;40.350;2024-01-27T07:46:49;40.00;27.80;12.60
72509;PMS5003;60532;56.114;40.350;2024-01-27T07:48:50;42.75;34.00;18.25
72509;PMS5003;60532;56.114;40.350;2024-01-27T07:50:50;50.25;36.75;17.00
72509;PMS5003;60532;56.114;40.350;2024-01-27T07:52:51;51.50;39.75;18.75
72509;PMS5003;60532;56.114;40.350;2024-01-27T07:54:52;55.50;36.50;15.00
72509;PMS5003;60532;56.114;40.350;2024-01-27T07:56:54;53.60;40.60;19.60
72509;PMS5003;60532;56.114;40.350;2024-01-27T07:58:55;34.75;30.75;17.50
72509;PMS5003;60532;56.114;40.350;2024-01-27T08:00:55;47.00;33.75;16.00
72509;PMS5003;60532;56.114;40.350;2024-01-27T08:02:56;44.50;34.00;16.50
72509;PMS5003;60532;56.114;40.350;2024-01-27T08:04:57;47.60;37.20;19.80
72509;PMS5003;60532;56.114;40.350;2024-01-27T08:06:58;48.00;41.75;21.00
72509;PMS5003;60532;56.114;40.350;2024-01-27T08:08:58;34.00;26.50;13.25
72509;PMS5003;60532;56.114;40.350;2024-01-27T08:10:59;37.20;30.00;19.80
72509;PMS5003;60532;56.114;40.350;2024-01-27T08:13:00;66.75;41.50;20.00
72509;PMS5003;60532;56.114;40.350;2024-01-27T08:15:01;58.00;39.75;20.50
72509;PMS5003;60532;56.114;40.350;2024-01-27T08:17:03;60.00;34.20;15.80
72509;PMS5003;60532;56.114;40.350;2024-01-27T08:19:04;51.50;36.00;16.50
72509;PMS5003;60532;56.114;40.350;2024-01-27T08:21:05;42.00;25.50;14.00
72509;PMS5003;60532;56.114;40.350;2024-01-27T08:23:06;47.25;38.25;19.25
72509;PMS5003;60532;56.114;40.350;2024-01-27T08:25:06;50.75;33.50;18.00
72509;PMS5003;60532;56.114;40.350;2024-01-27T08:27:07;51.25;34.00;16.50
72509;PMS5003;60532;56.114;40.350;2024-01-27T08:29:11;42.50;37.00;17.50
72509;PMS5003;60532;56.114;40.350;2024-01-27T08:31:11;48.40;35.20;15.40
72509;PMS5003;60532;56.114;40.350;2024-01-27T08:33:12;54.25;40.00;19.00
72509;PMS5003;60532;56.114;40.350;2024-01-27T08:35:13;51.50;35.00;17.50
72509;PMS5003;60532;56.114;40.350;2024-01-27T08:37:22;54.00;37.00;18.00
72509;PMS5003;60532;56.114;40.350;2024-01-27T08:39:23;36.60;22.80;6.20
72509;PMS5003;60532;56.114;40.350;2024-01-27T08:41:23;44.25;31.50;16.50
72509;PMS5003;60532;56.114;40.350;2024-01-27T08:43:24;54.75;41.75;21.50
72509;PMS5003;60532;56.114;40.350;2024-01-27T08:45:25;37.50;24.50;16.00
72509;PMS5003;60532;56.114;40.350;2024-01-27T08:47:26;53.40;37.40;15.40
72509;PMS5003;60532;56.114;40.350;2024-01-27T08:49:30;63.75;37.50;18.25
72509;PMS5003;60532;56.114;40.350;2024-01-27T08:51:30;50.80;30.40;13.80
72509;PMS5003;60532;56.114;40.350;2024-01-27T08:53:31;44.25;37.50;19.00
72509;PMS5003;60532;56.114;40.350;2024-01-27T08:55:32;46.75;27.25;11.00
72509;PMS5003;60532;56.114;40.350;2024-01-27T08:57:32;40.50;32.75;18.00
72509;PMS5003;60532;56.114;40.350;2024-01-27T08:59:33;44.75;33.50;16.50
72509;PMS5003;60532;56.114;40.350;2024-01-27T09:01:34;58.60;41.00;19.20
72509;PMS5003;60532;56.114;40.350;2024-01-27T09:03:35;54.75;41.00;19.00
72509;PMS5003;60532;56.114;40.350;2024-01-27T09:05:36;48.80;41.00;20.20
72509;PMS5003;60532;56.114;40.350;2024-01-27T09:07:37;53.40;36.40;18.00
72509;PMS5003;60532;56.114;40.350;2024-01-27T09:09:37;51.50;36.00;18.00
72509;PMS5003;60532;56.114;40.350;2024-01-27T09:11:41;49.80;37.00;19.20
72509;PMS5003;60532;56.114;40.350;2024-01-27T09:13:42;45.00;34.40;15.80
72509;PMS5003;60532;56.114;40.350;2024-01-27T09:15:45;67.40;47.80;19.00
72509;PMS5003;60532;56.114;40.350;2024-01-27T09:17:46;46.50;42.25;19.00
72509;PMS5003;60532;56.114;40.350;2024-01-27T09:19:48;47.80;41.60;17.60
72509;PMS5003;60532;56.114;40.350;2024-01-27T09:21:49;44.50;38.50;16.25
72509;PMS5003;60532;56.114;40.350;2024-01-27T09:23:49;54.25;36.75;16.00
72509;PMS5003;60532;56.114;40.350;2024-01-27T09:25:50;61.25;42.00;18.00
72509;PMS5003;60532;56.114;40.350;2024-01-27T09:27:52;50.50;36.00;16.25
72509;PMS5003;60532;56.114;40.350;2024-01-27T09:29:52;59.40;46.60;20.60
72509;PMS5003;60532;56.114;40.350;2024-01-27T09:31:53;50.25;38.00;21.25
72509;PMS5003;60532;56.114;40.350;2024-01-27T09:34:00;59.20;40.60;15.00
72509;PMS5003;60532;56.114;40.350;2024-01-27T09:36:01;54.60;40.00;19.00
72509;PMS5003;60532;56.114;40.350;2024-01-27T09:38:02;41.25;30.00;10.50
72509;PMS5003;60532;56.114;40.350;2024-01-27T09:40:03;51.75;36.75;18.00
72509;PMS5003;60532;56.114;40.350;2024-01-27T09:42:06;40.60;34.20;6.00
72509;PMS5003;60532;56.114;40.350;2024-01-27T09:44:07;40.80;32.20;21.00
72509;PMS5003;60532;56.114;40.350;2024-01-27T09:46:08;61.00;42.50;20.00
72509;PMS5003;60532;56.114;40.350;2024-01-27T09:48:09;68.80;46.40;20.20
72509;PMS5003;60532;56.114;40.350;2024-01-27T09:50:11;51.40;39.40;18.00
72509;PMS5003;60532;56.114;40.350;2024-01-27T09:52:12;57.80;45.40;20.60
72509;PMS5003;60532;56.114;40.350;2024-01-27T09:54:13;38.25;30.50;22.50
72509;PMS5003;60532;56.114;40.350;2024-01-27T09:56:15;54.40;38.40;19.60
72509;PMS5003;60532;56.114;40.350;2024-01-27T09:58:18;46.60;37.00;15.20
72509;PMS5003;60532;56.114;40.350;2024-01-27T10:00:19;58.75;37.50;12.25
72509;PMS5003;60532;56.114;40.350;2024-01-27T10:02:20;45.60;37.40;14.60
72509;PMS5003;60532;56.114;40.350;2024-01-27T10:04:20;57.50;45.00;20.50
72509;PMS5003;60532;56.114;40.350;2024-01-27T10:06:22;66.20;46.20;23.20
72509;PMS5003;60532;56.114;40.350;2024-01-27T10:08:24;57.40;43.40;22.20
72509;PMS5003;60532;56.114;40.350;2024-01-27T10:10:25;70.75;48.25;21.50
72509;PMS5003;60532;56.114;40.350;2024-01-27T10:12:26;61.20;42.40;19.80
72509;PMS5003;60532;56.114;40.350;2024-01-27T10:14:41;69.80;45.60;23.20
72509;PMS5003;60532;56.114;40.350;2024-01-27T10:16:42;54.00;44.00;24.00
72509;PMS5003;60532;56.114;40.350;2024-01-27T10:18:43;56.80;44.60;18.00
72509;PMS5003;60532;56.114;40.350;2024-01-27T10:20:44;52.25;35.00;14.75
72509;PMS5003;60532;56.114;40.350;2024-01-27T10:22:45;68.80;48.00;21.80
72509;PMS5003;60532;56.114;40.350;2024-01-27T10:24:45;70.00;41.25;19.00
72509;PMS5003;60532;56.114;40.350;2024-01-27T10:26:47;53.80;40.20;21.00
72509;PMS5003;60532;56.114;40.350;2024-01-27T10:28:55;68.25;42.50;18.75
72509;PMS5003;60532;56.114;40.350;2024-01-27T10:31:07;57.60;48.60;22.20
72509;PMS5003;60532;56.114;40.350;2024-01-27T10:33:08;58.80;45.40;22.40
72509;PMS5003;60532;56.114;40.350;2024-01-27T10:35:10;58.00;43.00;24.20
72509;PMS5003;60532;56.114;40.350;2024-01-27T10:37:12;56.20;44.00;18.00
72509;PMS5003;60532;56.114;40.350;2024-01-27T10:39:13;41.60;33.20;18.00
72509;PMS5003;60532;56.114;40.350;2024-01-27T10:41:23;62.40;45.20;21.00
72509;PMS5003;60532;56.114;40.350;2024-01-27T10:43:24;50.80;45.00;16.80
72509;PMS5003;60532;56.114;40.350;2024-01-27T10:45:25;64.00;45.20;21.80
72509;PMS5003;60532;56.114;40.350;2024-01-27T10:47:27;65.20;44.20;20.20
72509;PMS5003;60532;56.114;40.350;2024-01-27T10:49:29;62.60;45.00;21.00
72509;PMS5003;60532;56.114;40.350;2024-01-27T10:51:34;56.80;38.00;16.00
72509;PMS5003;60532;56.114;40.350;2024-01-27T10:53:38;67.00;47.20;23.00
72509;PMS5003;60532;56.114;40.350;2024-01-27T10:55:40;50.60;41.60;19.00
72509;PMS5003;60532;56.114;40.350;2024-01-27T10:57:43;57.80;43.60;20.20
72509;PMS5003;60532;56.114;40.350;2024-01-27T10:59:44;61.80;47.20;21.20
72509;PMS5003;60532;56.114;40.350;2024-01-27T11:01:46;61.00;45.20;22.60
72509;PMS5003;60532;56.114;40.350;2024-01-27T11:03:47;58.00;40.20;16.40
72509;PMS5003;60532;56.114;40.350;2024-01-27T11:05:48;66.20;42.00;19.00
72509;PMS5003;60532;56.114;40.350;2024-01-27T11:07:50;55.00;43.00;18.60
72509;PMS5003;60532;56.114;40.350;2024-01-27T11:09:52;40.80;33.80;15.00
72509;PMS5003;60532;56.114;40.350;2024-01-27T11:11:52;56.50;43.00;21.00